EPWR

Copernicus Wrocław Airport

Wrocław, Poland

EPWR 210700Z 28009KT 9999 FEW013 BKN016 08/06 Q1006

Observed Flight Rules
Feb-21 @ 07:00 UTC (36 minutes ago)
 
Marginal Visual Flight Rules
Wind Visibility Clouds
280° at 9 knots 10 km or more
  • Few at 1,300' AGL
  • Broken at 1,600' AGL
Temperatures Readings
Current 8°C / 46°F
Dewpoint 6°C / 43°F
Humidity 87%
Altimeter 29.7" Hg
Pressure 1006 hPa
Elevation 121.0
Observed Flight Rules
Feb-21 @ 07:00 UTC
(36 minutes ago)
 
MVFR
Wind Visibility
280° at 9 knots 10 km or more
Clouds
  • Few at 1,300' AGL
  • Broken at 1,600' AGL
Temperature Dewpoint
8°C / 46°F 6°C / 43°F
Humidity Altimeter Pressure
87% 29.7" Hg 1006 hPa